Time;durP1;ratioP1;P1;durP2;ratioP2;P2;SDS_P1;SDS_P2;PMS_P1;PMS_P2;Temp;Humidity;BMP_temperature;BMP_pressure;BME280_temperature;BME280_humidity;BME280_pressure;Samples;Min_cycle;Max_cycle;Signal;HPM_P1;HPM_P2
2022/12/09 00:01:20;;;;;;;7.85;3.75;;;3.10;99.90;;;;;;5000770;28;20076;-72
2022/12/09 00:03:47;;;;;;;8.73;4.55;;;3.10;99.90;;;;;;5008273;28;20045;-72
2022/12/09 00:06:28;;;;;;;15.35;5.10;;;3.20;99.90;;;;;;5000420;28;20030;-71
2022/12/09 00:08:56;;;;;;;12.13;4.95;;;3.20;99.90;;;;;;5009445;28;20040;-71
2022/12/09 00:11:22;;;;;;;8.77;4.43;;;3.20;99.90;;;;;;5000030;28;20034;-72
2022/12/09 00:13:54;;;;;;;15.18;5.07;;;3.10;99.90;;;;;;5009650;28;20034;-72
2022/12/09 00:16:21;;;;;;;10.18;4.00;;;3.10;99.90;;;;;;4999862;28;20027;-72
2022/12/09 00:18:48;;;;;;;10.02;4.55;;;3.10;99.90;;;;;;5009267;28;20034;-72
2022/12/09 00:21:23;;;;;;;10.15;5.40;;;3.10;99.90;;;;;;5000000;28;20026;-72
2022/12/09 00:23:51;;;;;;;9.20;3.83;;;3.10;99.90;;;;;;5008469;28;20033;-72
2022/12/09 00:26:19;;;;;;;9.13;5.53;;;3.10;99.90;;;;;;4998842;28;20068;-71
2022/12/09 00:28:45;;;;;;;7.85;3.78;;;3.10;99.90;;;;;;5008864;28;20068;-72
2022/12/09 00:31:20;;;;;;;9.25;4.05;;;3.00;99.90;;;;;;5000798;28;20449;-72
2022/12/09 00:33:46;;;;;;;9.65;4.70;;;3.00;99.90;;;;;;5008061;28;20083;-72
2022/12/09 00:36:15;;;;;;;9.57;5.72;;;3.00;99.90;;;;;;5000528;28;20026;-72
2022/12/09 00:38:42;;;;;;;7.95;3.38;;;2.90;99.90;;;;;;5003660;28;20359;-72
2022/12/09 00:41:09;;;;;;;8.20;5.07;;;2.80;99.90;;;;;;4999376;28;20022;-72
2022/12/09 00:43:35;;;;;;;12.40;4.97;;;2.80;99.90;;;;;;5007242;28;20516;-72
2022/12/09 00:46:01;;;;;;;9.50;4.63;;;2.70;99.90;;;;;;5001368;28;20038;-72
2022/12/09 00:48:28;;;;;;;9.27;4.63;;;2.70;99.90;;;;;;5004703;28;20830;-72
2022/12/09 00:50:53;;;;;;;16.92;4.60;;;2.60;99.90;;;;;;5002249;28;20160;-72
2022/12/09 00:53:19;;;;;;;9.02;5.28;;;2.60;99.90;;;;;;5003965;28;20109;-72
2022/12/09 00:55:45;;;;;;;8.35;3.67;;;2.60;99.90;;;;;;5003807;28;20084;-72
2022/12/09 00:58:12;;;;;;;7.65;4.40;;;2.60;99.90;;;;;;5002284;28;20030;-72
2022/12/09 01:00:39;;;;;;;14.27;5.47;;;2.60;99.90;;;;;;5003636;28;20027;-71
2022/12/09 01:03:05;;;;;;;7.13;4.30;;;2.60;99.90;;;;;;5002221;28;20482;-71
2022/12/09 01:05:35;;;;;;;7.43;4.63;;;2.50;99.90;;;;;;5003808;28;20104;-72
2022/12/09 01:08:00;;;;;;;11.18;4.03;;;2.40;99.90;;;;;;5003477;28;20485;-72
2022/12/09 01:10:26;;;;;;;6.70;3.80;;;2.30;99.90;;;;;;5002211;28;20041;-72
2022/12/09 01:12:52;;;;;;;6.70;4.32;;;2.20;99.90;;;;;;5009205;28;20040;-72
2022/12/09 01:15:18;;;;;;;14.85;5.57;;;2.20;99.90;;;;;;5003292;28;20054;-72
2022/12/09 01:17:43;;;;;;;10.05;3.67;;;2.10;99.90;;;;;;5007912;28;20503;-71
2022/12/09 01:20:09;;;;;;;7.63;3.65;;;2.10;99.90;;;;;;5004952;28;20109;-73
2022/12/09 01:22:35;;;;;;;11.13;4.30;;;2.10;99.90;;;;;;5006973;28;20037;-72
2022/12/09 01:25:02;;;;;;;7.30;4.13;;;2.00;99.90;;;;;;5005547;28;20731;-72
2022/12/09 01:27:31;;;;;;;9.02;4.53;;;2.00;99.90;;;;;;5004457;28;20036;-72
2022/12/09 01:29:57;;;;;;;9.43;4.65;;;2.00;99.90;;;;;;5006042;28;20457;-73
2022/12/09 01:32:23;;;;;;;4.88;3.72;;;1.90;99.90;;;;;;5004876;28;20061;-72
2022/12/09 01:34:48;;;;;;;9.70;5.28;;;1.90;99.90;;;;;;5007827;28;20038;-72
2022/12/09 01:37:15;;;;;;;9.95;4.78;;;1.80;99.90;;;;;;5003295;28;20042;-72
2022/12/09 01:39:41;;;;;;;9.88;5.07;;;1.80;99.90;;;;;;5008285;28;20105;-72
2022/12/09 01:42:19;;;;;;;8.88;4.85;;;1.80;99.90;;;;;;5002898;28;20057;-71
2022/12/09 01:45:19;;;;;;;8.55;4.40;;;1.70;99.90;;;;;;5007822;28;20401;-72
2022/12/09 01:47:56;;;;;;;11.82;4.28;;;1.70;99.90;;;;;;5007714;28;20026;-72
2022/12/09 01:50:25;;;;;;;6.93;3.45;;;1.70;99.90;;;;;;5002244;28;20410;-72
2022/12/09 01:52:52;;;;;;;9.90;5.38;;;1.60;99.90;;;;;;5007286;28;20026;-72
2022/12/09 01:55:17;;;;;;;9.40;4.28;;;1.60;99.90;;;;;;5003664;28;20035;-72
2022/12/09 01:57:44;;;;;;;5.38;4.25;;;1.50;99.90;;;;;;5007513;28;20393;-72
2022/12/09 02:00:11;;;;;;;8.52;3.47;;;1.40;99.90;;;;;;5003846;28;20050;-72
2022/12/09 02:02:40;;;;;;;5.10;3.47;;;1.40;99.90;;;;;;5004543;28;20115;-72
2022/12/09 02:05:06;;;;;;;8.50;3.72;;;1.40;99.90;;;;;;4989322;28;20034;-72
2022/12/09 02:07:33;;;;;;;8.30;4.05;;;1.30;99.90;;;;;;4987655;28;20359;-72
2022/12/09 02:09:59;;;;;;;8.98;4.63;;;1.20;99.90;;;;;;4991537;28;20038;-72
2022/12/09 02:13:11;;;;;;;11.98;5.03;;;1.20;99.90;;;;;;5005488;28;20034;-72
2022/12/09 02:15:49;;;;;;;12.68;5.75;;;1.10;99.90;;;;;;5005705;28;20050;-72
2022/12/09 02:18:26;;;;;;;8.93;4.07;;;1.10;99.90;;;;;;4970168;28;20558;-72
2022/12/09 02:21:00;;;;;;;6.22;3.42;;;1.10;99.90;;;;;;4997543;28;20060;-72
2022/12/09 02:23:36;;;;;;;6.40;3.20;;;1.00;99.90;;;;;;5006468;28;20023;-72
2022/12/09 02:26:23;;;;;;;3.83;3.05;;;1.00;99.90;;;;;;4999829;28;20042;-72
2022/12/09 02:29:44;;;;;;;7.15;2.95;;;0.90;99.90;;;;;;5010465;28;20116;-72
2022/12/09 02:32:49;;;;;;;8.13;2.80;;;0.90;99.90;;;;;;5005416;28;20580;-73
2022/12/09 02:35:31;;;;;;;9.90;5.10;;;0.80;99.90;;;;;;5006127;28;20042;-73
2022/12/09 02:38:15;;;;;;;10.43;5.07;;;0.80;99.90;;;;;;5011349;28;20474;-72
2022/12/09 02:40:59;;;;;;;6.03;2.95;;;0.70;99.90;;;;;;4999506;28;20031;-73
2022/12/09 02:43:31;;;;;;;6.32;3.00;;;0.70;99.90;;;;;;4975030;28;20102;-72
2022/12/09 02:45:59;;;;;;;7.88;5.28;;;0.70;99.90;;;;;;5003791;28;20571;-72
2022/12/09 02:48:32;;;;;;;9.75;3.92;;;0.70;99.90;;;;;;5012446;28;20245;-72
2022/12/09 02:51:01;;;;;;;8.57;3.53;;;0.70;99.90;;;;;;5002288;28;20052;-72
2022/12/09 02:53:29;;;;;;;8.65;3.00;;;0.70;99.90;;;;;;5006789;28;20512;-72
2022/12/09 02:55:56;;;;;;;12.13;4.93;;;0.70;99.90;;;;;;5005549;28;20029;-72
2022/12/09 02:58:21;;;;;;;5.57;3.55;;;0.70;99.90;;;;;;5005804;28;20389;-71
2022/12/09 03:00:47;;;;;;;7.72;3.10;;;0.70;99.90;;;;;;5006445;28;20037;-72
2022/12/09 03:03:15;;;;;;;12.98;3.83;;;0.70;99.90;;;;;;5006050;28;20116;-72
2022/12/09 03:06:00;;;;;;;6.75;3.67;;;0.70;99.90;;;;;;5006204;28;20505;-72
2022/12/09 03:08:46;;;;;;;10.10;4.00;;;0.70;99.90;;;;;;5001637;28;20050;-72
2022/12/09 03:11:16;;;;;;;5.60;3.22;;;0.70;99.90;;;;;;5003681;28;20027;-72
2022/12/09 03:14:04;;;;;;;11.60;3.25;;;0.70;99.90;;;;;;5005738;28;20037;-72
2022/12/09 03:16:54;;;;;;;9.93;4.03;;;0.60;99.90;;;;;;5000539;28;20364;-72
2022/12/09 03:19:41;;;;;;;7.93;3.65;;;0.60;99.90;;;;;;4975614;28;20649;-72
2022/12/09 03:22:11;;;;;;;8.38;4.10;;;0.50;99.90;;;;;;5003882;28;20030;-72
2022/12/09 03:25:03;;;;;;;6.03;3.38;;;0.40;99.90;;;;;;5007476;28;20041;-72
2022/12/09 03:27:53;;;;;;;11.60;4.45;;;0.40;99.90;;;;;;4962775;28;20038;-72
2022/12/09 03:30:19;;;;;;;7.40;3.53;;;0.30;99.90;;;;;;5020790;28;20418;-72
2022/12/09 03:32:46;;;;;;;6.18;4.47;;;0.20;99.90;;;;;;5004967;28;20072;-72
2022/12/09 03:35:23;;;;;;;5.22;2.20;;;0.20;99.90;;;;;;5005543;28;20053;-72
2022/12/09 03:37:51;;;;;;;8.23;3.45;;;0.10;99.90;;;;;;5003308;28;20030;-72
2022/12/09 03:40:24;;;;;;;4.03;3.10;;;0.10;99.90;;;;;;5004870;28;20092;-72
2022/12/09 03:42:59;;;;;;;4.88;3.33;;;0.10;99.90;;;;;;5003400;28;20030;-72
2022/12/09 03:45:26;;;;;;;6.43;3.58;;;0.00;99.90;;;;;;5005666;28;20103;-71
2022/12/09 03:47:53;;;;;;;4.15;2.67;;;0.00;99.90;;;;;;5003383;28;20034;-72
2022/12/09 03:50:26;;;;;;;7.10;5.18;;;0.00;99.90;;;;;;5005249;28;20022;-71
2022/12/09 03:53:08;;;;;;;5.10;3.38;;;-0.10;99.90;;;;;;5003330;28;20100;-71
2022/12/09 03:55:42;;;;;;;7.75;3.53;;;-0.20;99.90;;;;;;5005358;28;20026;-72
2022/12/09 03:58:11;;;;;;;4.85;2.95;;;-0.30;99.90;;;;;;5003264;28;20033;-72
2022/12/09 04:00:38;;;;;;;7.40;2.97;;;-0.30;99.90;;;;;;5005106;28;20032;-72
2022/12/09 04:03:06;;;;;;;4.03;3.53;;;-0.30;99.90;;;;;;5004119;28;20069;-72
2022/12/09 04:05:31;;;;;;;7.20;3.83;;;-0.30;99.90;;;;;;5005649;28;20494;-73
2022/12/09 04:07:58;;;;;;;6.55;3.92;;;-0.30;99.90;;;;;;5003328;28;20108;-72
2022/12/09 04:10:23;;;;;;;9.93;3.63;;;-0.30;99.90;;;;;;5005283;28;20524;-73
2022/12/09 04:12:49;;;;;;;4.55;3.00;;;-0.30;99.90;;;;;;5004228;28;20034;-73
2022/12/09 04:15:15;;;;;;;11.95;5.15;;;-0.30;99.90;;;;;;5005140;28;20029;-72
2022/12/09 04:17:41;;;;;;;8.10;4.10;;;-0.30;99.90;;;;;;5004258;28;20041;-73
2022/12/09 04:20:07;;;;;;;6.22;4.20;;;-0.30;99.90;;;;;;5004264;28;20521;-73
2022/12/09 04:22:33;;;;;;;4.85;2.80;;;-0.30;99.90;;;;;;5003022;28;20022;-73
2022/12/09 04:24:59;;;;;;;6.78;4.68;;;-0.30;99.90;;;;;;5004590;28;20372;-73
2022/12/09 04:27:25;;;;;;;4.95;3.25;;;-0.30;99.90;;;;;;5003824;28;20038;-72
2022/12/09 04:29:50;;;;;;;8.38;4.05;;;-0.30;99.90;;;;;;5004896;28;20037;-72
2022/12/09 04:32:16;;;;;;;7.50;4.13;;;-0.30;99.90;;;;;;5003795;28;20041;-72
2022/12/09 04:34:42;;;;;;;4.97;2.83;;;-0.30;99.90;;;;;;5004009;28;20042;-71
2022/12/09 04:37:07;;;;;;;4.85;3.33;;;-0.20;99.90;;;;;;5003342;28;20026;-72
2022/12/09 04:39:33;;;;;;;7.57;3.35;;;-0.20;99.90;;;;;;5006035;28;20029;-72
2022/12/09 04:41:59;;;;;;;6.32;3.88;;;-0.10;99.90;;;;;;5001517;28;20105;-72
2022/12/09 04:44:24;;;;;;;5.22;3.05;;;-0.10;99.90;;;;;;5007806;28;20106;-72
2022/12/09 04:46:50;;;;;;;6.47;4.05;;;0.00;99.90;;;;;;5001045;28;20026;-71
2022/12/09 04:49:16;;;;;;;8.27;5.28;;;0.00;99.90;;;;;;5008372;28;20048;-72
2022/12/09 04:51:41;;;;;;;9.73;4.45;;;0.00;99.90;;;;;;4999014;28;20192;-72
2022/12/09 04:54:12;;;;;;;6.93;4.05;;;0.10;99.90;;;;;;5009406;28;20712;-72
2022/12/09 04:56:38;;;;;;;7.53;2.83;;;0.20;99.90;;;;;;4998929;28;20092;-71
2022/12/09 04:59:04;;;;;;;13.68;4.50;;;0.20;99.90;;;;;;5009278;28;20034;-72
2022/12/09 05:01:31;;;;;;;7.90;4.40;;;0.20;99.90;;;;;;4998608;28;20091;-72
2022/12/09 05:03:57;;;;;;;8.85;3.63;;;0.30;99.90;;;;;;5008676;28;20505;-72
2022/12/09 05:06:23;;;;;;;5.93;3.47;;;0.30;99.90;;;;;;4999052;28;20049;-72
2022/12/09 05:08:49;;;;;;;6.72;4.43;;;0.50;99.90;;;;;;5008632;28;20109;-72
2022/12/09 05:11:18;;;;;;;7.10;4.63;;;0.50;99.90;;;;;;4999966;28;20034;-72
2022/12/09 05:13:44;;;;;;;13.70;4.55;;;0.50;99.90;;;;;;5007675;28;20030;-72
2022/12/09 05:16:13;;;;;;;5.70;4.93;;;0.50;99.90;;;;;;4999945;28;20034;-72
2022/12/09 05:18:39;;;;;;;6.10;3.53;;;0.50;99.90;;;;;;5006949;28;20116;-72
2022/12/09 05:21:07;;;;;;;9.98;4.45;;;0.50;99.90;;;;;;5001615;28;20109;-71
2022/12/09 05:23:34;;;;;;;5.30;3.30;;;0.50;99.90;;;;;;5006407;28;20037;-72
2022/12/09 05:26:09;;;;;;;9.20;4.13;;;0.50;99.90;;;;;;5001824;28;20489;-72
2022/12/09 05:28:35;;;;;;;7.63;4.07;;;0.50;99.90;;;;;;4986938;28;20188;-72
2022/12/09 05:31:18;;;;;;;18.73;7.70;;;0.50;99.90;;;;;;5004910;28;20033;-72
2022/12/09 05:33:45;;;;;;;14.32;4.72;;;0.50;99.90;;;;;;5003347;28;20041;-73
2022/12/09 05:36:14;;;;;;;4.45;2.28;;;0.50;99.90;;;;;;4988832;28;20041;-73
2022/12/09 05:38:40;;;;;;;8.85;4.25;;;0.50;99.90;;;;;;4995876;28;20034;-73
2022/12/09 05:41:06;;;;;;;16.60;3.42;;;0.50;99.90;;;;;;4999406;28;20489;-73
2022/12/09 05:43:35;;;;;;;10.27;4.15;;;0.40;99.90;;;;;;4989200;28;20026;-72
2022/12/09 05:46:04;;;;;;;17.42;6.22;;;0.40;99.90;;;;;;4981402;28;20141;-76
2022/12/09 05:48:30;;;;;;;5.80;2.35;;;0.40;99.90;;;;;;4981328;28;20044;-73
2022/12/09 05:51:25;;;;;;;16.25;6.32;;;0.30;99.90;;;;;;4993900;28;20034;-74
2022/12/09 05:53:51;;;;;;;9.27;5.03;;;0.30;99.90;;;;;;4973955;28;20061;-73
2022/12/09 05:56:19;;;;;;;6.15;3.80;;;0.20;99.90;;;;;;4988777;28;20026;-71
2022/12/09 05:58:45;;;;;;;5.70;3.33;;;0.20;99.90;;;;;;5001325;28;20057;-67
2022/12/09 06:01:12;;;;;;;9.60;5.32;;;0.20;99.90;;;;;;4983714;28;20141;-70
2022/12/09 06:03:38;;;;;;;8.35;3.58;;;0.20;99.90;;;;;;4994493;28;20025;-70
2022/12/09 06:06:13;;;;;;;14.40;4.85;;;0.20;99.90;;;;;;5006634;28;20140;-71
2022/12/09 06:08:40;;;;;;;4.68;3.90;;;0.20;99.90;;;;;;5004519;28;20034;-71
2022/12/09 06:11:16;;;;;;;8.63;5.10;;;0.20;99.90;;;;;;5006032;28;20025;-71
2022/12/09 06:13:42;;;;;;;6.38;4.70;;;0.20;99.90;;;;;;5004554;28;20022;-71
2022/12/09 06:16:09;;;;;;;6.40;3.97;;;0.10;99.90;;;;;;4998514;28;20030;-70
2022/12/09 06:18:36;;;;;;;7.15;5.15;;;0.10;99.90;;;;;;4993097;28;20045;-71
2022/12/09 06:21:07;;;;;;;5.35;3.92;;;0.10;99.90;;;;;;5003843;28;20093;-70
2022/12/09 06:23:35;;;;;;;6.32;3.15;;;0.20;99.90;;;;;;5005977;28;20490;-70
2022/12/09 06:26:01;;;;;;;9.15;4.00;;;0.30;99.90;;;;;;5002423;28;20041;-71
2022/12/09 06:28:27;;;;;;;6.78;3.78;;;0.30;99.90;;;;;;4991028;28;20022;-70
2022/12/09 06:30:53;;;;;;;5.18;2.58;;;0.30;99.90;;;;;;5005398;28;20121;-70
2022/12/09 06:33:19;;;;;;;7.18;5.40;;;0.30;99.90;;;;;;5007074;28;20061;-70
2022/12/09 06:35:44;;;;;;;11.98;4.47;;;0.20;99.90;;;;;;5006195;28;20460;-71
2022/12/09 06:38:10;;;;;;;7.97;4.00;;;0.20;99.90;;;;;;5005810;28;20093;-71
2022/12/09 06:40:40;;;;;;;6.68;3.10;;;0.20;99.90;;;;;;5002484;28;20034;-71
2022/12/09 06:43:06;;;;;;;6.63;3.55;;;0.20;99.90;;;;;;4995759;28;20034;-72
2022/12/09 06:45:32;;;;;;;6.97;3.60;;;0.20;99.90;;;;;;4994595;28;20034;-73
2022/12/09 06:47:58;;;;;;;6.75;3.42;;;0.20;99.90;;;;;;5000005;28;20084;-70
2022/12/09 06:50:24;;;;;;;22.40;5.50;;;0.30;99.90;;;;;;5006812;28;20100;-70
2022/12/09 06:52:49;;;;;;;8.60;3.25;;;0.30;99.90;;;;;;5003116;28;20038;-69
2022/12/09 06:55:15;;;;;;;6.85;4.80;;;0.30;99.90;;;;;;5004980;28;20030;-69
2022/12/09 06:57:40;;;;;;;9.50;4.18;;;0.30;99.90;;;;;;5007922;28;20035;-70
2022/12/09 07:00:07;;;;;;;7.20;4.32;;;0.30;99.90;;;;;;5004755;28;20473;-70
2022/12/09 07:02:33;;;;;;;12.65;5.85;;;0.30;99.90;;;;;;4965484;28;20495;-70
2022/12/09 07:04:59;;;;;;;9.30;4.90;;;0.30;99.90;;;;;;4987634;28;20033;-70
2022/12/09 07:07:25;;;;;;;9.05;5.82;;;0.30;99.90;;;;;;4986996;28;20030;-72
2022/12/09 07:09:51;;;;;;;7.80;4.20;;;0.30;99.90;;;;;;4987073;28;20058;-71
2022/12/09 07:12:16;;;;;;;9.90;4.38;;;0.30;99.90;;;;;;4984552;28;20026;-71
2022/12/09 07:14:42;;;;;;;5.45;3.55;;;0.20;99.90;;;;;;4986797;28;20114;-71
2022/12/09 07:17:18;;;;;;;6.95;3.05;;;0.30;99.90;;;;;;4986986;28;20105;-71
2022/12/09 07:19:45;;;;;;;14.13;4.70;;;0.20;99.90;;;;;;4998370;28;20037;-71
2022/12/09 07:22:11;;;;;;;17.20;7.00;;;0.20;99.90;;;;;;4988368;28;20034;-71
2022/12/09 07:24:38;;;;;;;5.18;3.50;;;0.30;99.90;;;;;;4987665;28;20030;-71
2022/12/09 07:27:06;;;;;;;6.57;4.45;;;0.30;99.90;;;;;;4993581;28;20030;-71
2022/12/09 07:29:34;;;;;;;12.32;5.72;;;0.30;99.90;;;;;;4993194;28;20127;-71
2022/12/09 07:32:00;;;;;;;7.32;3.90;;;0.30;99.90;;;;;;4989682;28;20038;-72
2022/12/09 07:34:26;;;;;;;10.98;3.67;;;0.30;99.90;;;;;;4986392;28;20240;-71
2022/12/09 07:36:51;;;;;;;5.72;3.03;;;0.30;99.90;;;;;;4993265;28;20031;-70
2022/12/09 07:39:18;;;;;;;8.30;4.65;;;0.30;99.90;;;;;;4986985;28;20192;-71
2022/12/09 07:41:44;;;;;;;12.68;5.97;;;0.30;99.90;;;;;;4995743;28;20030;-71
2022/12/09 07:44:10;;;;;;;10.48;4.30;;;0.30;99.90;;;;;;4982549;28;20234;-71
2022/12/09 07:46:38;;;;;;;22.65;4.63;;;0.30;99.90;;;;;;4983099;28;20504;-69
2022/12/09 07:49:05;;;;;;;12.70;4.28;;;0.30;99.90;;;;;;4994109;28;20061;-72
2022/12/09 07:51:32;;;;;;;8.43;4.57;;;0.40;99.90;;;;;;4989327;28;20078;-71
2022/12/09 07:53:57;;;;;;;11.98;4.93;;;0.40;99.90;;;;;;4995978;28;20027;-73
2022/12/09 07:56:24;;;;;;;7.38;5.10;;;0.40;99.90;;;;;;5000699;28;20033;-72
2022/12/09 07:58:52;;;;;;;9.05;5.38;;;0.40;99.90;;;;;;4996784;28;20023;-71
2022/12/09 08:01:24;;;;;;;9.98;5.15;;;0.40;99.90;;;;;;4988953;28;20438;-72
2022/12/09 08:03:51;;;;;;;8.48;4.45;;;0.50;99.90;;;;;;4989689;28;20038;-69
2022/12/09 08:06:21;;;;;;;4.68;3.40;;;0.50;99.90;;;;;;4995878;28;20032;-70
2022/12/09 08:08:47;;;;;;;6.07;4.63;;;0.50;99.90;;;;;;5004279;28;20034;-71
2022/12/09 08:11:23;;;;;;;9.23;4.25;;;0.60;99.90;;;;;;5003984;28;20041;-72
2022/12/09 08:13:49;;;;;;;6.78;4.63;;;0.60;99.90;;;;;;4986640;28;20045;-72
2022/12/09 08:16:19;;;;;;;8.75;4.80;;;0.60;99.90;;;;;;4994990;28;20088;-69
2022/12/09 08:18:46;;;;;;;10.95;5.30;;;0.60;99.90;;;;;;4999847;28;20037;-71
2022/12/09 08:21:16;;;;;;;8.45;4.38;;;0.70;99.90;;;;;;5011069;28;20022;-70
2022/12/09 08:23:42;;;;;;;7.00;3.53;;;0.70;99.90;;;;;;5004334;28;20038;-72
2022/12/09 08:26:09;;;;;;;9.57;4.47;;;0.60;99.90;;;;;;4998639;28;20033;-71
2022/12/09 08:28:35;;;;;;;8.48;5.55;;;0.80;99.90;;;;;;5006988;28;20077;-72
2022/12/09 08:31:15;;;;;;;8.38;4.95;;;0.80;99.90;;;;;;4999235;28;20036;-70
2022/12/09 08:33:41;;;;;;;14.90;5.65;;;0.90;99.90;;;;;;4995778;28;20031;-70
2022/12/09 08:36:17;;;;;;;6.82;4.85;;;0.90;99.90;;;;;;4998998;28;20708;-70
2022/12/09 08:38:44;;;;;;;10.93;4.55;;;1.00;99.90;;;;;;5006969;28;20030;-70
2022/12/09 08:41:41;;;;;;;14.52;5.18;;;1.00;99.90;;;;;;5003560;28;20077;-70
2022/12/09 08:44:17;;;;;;;12.45;5.72;;;1.00;99.90;;;;;;5001566;28;20037;-71
2022/12/09 08:46:48;;;;;;;5.57;4.07;;;1.10;99.90;;;;;;4993779;28;20038;-70
2022/12/09 08:49:20;;;;;;;10.05;4.88;;;1.20;99.90;;;;;;4996809;28;20042;-70
2022/12/09 08:51:49;;;;;;;7.22;4.03;;;1.30;99.90;;;;;;5000924;28;20030;-70
2022/12/09 08:54:15;;;;;;;14.15;5.47;;;1.40;99.90;;;;;;4993534;28;20046;-70
2022/12/09 08:56:48;;;;;;;19.30;6.57;;;1.40;99.90;;;;;;4997343;28;20030;-71
2022/12/09 08:59:14;;;;;;;9.13;5.47;;;1.50;99.90;;;;;;4995744;28;20050;-71
2022/12/09 09:01:40;;;;;;;6.78;3.72;;;1.50;99.90;;;;;;4988537;28;20031;-71
2022/12/09 09:04:10;;;;;;;8.10;4.38;;;1.70;99.90;;;;;;4990287;28;20048;-71
2022/12/09 09:06:39;;;;;;;9.32;4.85;;;1.70;99.90;;;;;;5000082;28;20074;-71
2022/12/09 09:09:06;;;;;;;6.15;3.55;;;1.60;99.90;;;;;;4980227;28;20038;-71
2022/12/09 09:11:33;;;;;;;9.00;4.57;;;1.70;99.90;;;;;;4976459;28;20031;-70
2022/12/09 09:13:58;;;;;;;16.27;6.07;;;1.80;99.90;;;;;;4989512;28;20045;-70
2022/12/09 09:16:26;;;;;;;8.82;4.25;;;1.80;99.90;;;;;;5000734;28;20026;-71
2022/12/09 09:18:52;;;;;;;11.48;3.75;;;2.00;99.90;;;;;;4985960;28;20470;-70
2022/12/09 09:21:23;;;;;;;7.70;3.92;;;2.10;99.90;;;;;;4997814;28;20697;-70
2022/12/09 09:23:49;;;;;;;9.55;3.92;;;2.20;99.90;;;;;;4990758;28;20034;-70
2022/12/09 09:26:24;;;;;;;8.13;3.90;;;2.30;99.90;;;;;;5001144;28;20031;-70
2022/12/09 09:28:51;;;;;;;5.68;2.63;;;2.40;99.90;;;;;;4999884;28;20473;-70
2022/12/09 09:31:20;;;;;;;10.40;5.50;;;2.50;99.90;;;;;;5004705;28;20061;-70
2022/12/09 09:33:46;;;;;;;7.70;4.32;;;2.60;99.90;;;;;;4999345;28;20109;-69
2022/12/09 09:36:19;;;;;;;6.55;4.75;;;2.70;99.90;;;;;;5004873;28;20026;-68
2022/12/09 09:38:46;;;;;;;9.85;4.60;;;2.90;99.90;;;;;;4981699;28;20026;-69
2022/12/09 09:41:48;;;;;;;11.18;4.13;;;3.00;99.90;;;;;;5005885;28;20031;-70
2022/12/09 09:44:49;;;;;;;7.95;4.50;;;3.10;99.90;;;;;;4965865;28;20666;-70
2022/12/09 09:47:35;;;;;;;5.95;3.85;;;3.20;99.90;;;;;;4975238;28;20087;-70
2022/12/09 09:50:40;;;;;;;14.13;4.20;;;3.40;99.90;;;;;;5000841;28;20038;-70
2022/12/09 09:53:35;;;;;;;10.77;4.13;;;3.70;99.90;;;;;;4989926;28;20068;-70
2022/12/09 09:56:24;;;;;;;8.27;4.82;;;4.10;99.90;;;;;;4983096;28;20045;-71
2022/12/09 09:59:24;;;;;;;6.50;4.85;;;4.50;99.90;;;;;;4993113;28;20038;-69
2022/12/09 10:02:11;;;;;;;7.40;3.45;;;5.00;99.90;;;;;;4982998;28;20115;-67
2022/12/09 10:05:01;;;;;;;6.45;3.92;;;5.40;99.90;;;;;;4978068;28;20102;-72
2022/12/09 10:07:42;;;;;;;8.30;4.13;;;5.40;99.90;;;;;;4980564;28;20031;-70
2022/12/09 10:10:30;;;;;;;45.08;6.50;;;5.60;99.90;;;;;;4984392;28;20069;-72
2022/12/09 10:13:28;;;;;;;9.75;4.05;;;5.80;99.90;;;;;;4984733;28;20062;-69
2022/12/09 10:16:40;;;;;;;12.35;5.50;;;6.00;99.90;;;;;;4993512;28;20035;-67
2022/12/09 10:19:31;;;;;;;10.32;5.00;;;6.60;99.90;;;;;;4984671;28;20023;-67
2022/12/09 10:22:04;;;;;;;12.45;5.60;;;7.00;99.90;;;;;;4980487;28;20034;-70
2022/12/09 10:24:34;;;;;;;8.60;4.18;;;7.30;99.90;;;;;;4997027;28;20022;-70
2022/12/09 10:27:20;;;;;;;13.65;4.85;;;7.80;99.90;;;;;;4983526;28;20394;-70
2022/12/09 10:30:08;;;;;;;9.77;5.55;;;8.20;99.90;;;;;;4981897;28;20038;-68
2022/12/09 10:32:36;;;;;;;9.23;4.50;;;8.60;99.90;;;;;;4984227;28;20447;-69
2022/12/09 10:35:19;;;;;;;8.82;4.43;;;8.70;99.90;;;;;;4983177;28;20096;-68
2022/12/09 10:37:47;;;;;;;10.65;4.63;;;8.90;99.90;;;;;;4987499;28;20538;-74
2022/12/09 10:40:53;;;;;;;9.23;4.80;;;8.60;99.90;;;;;;4991715;28;20534;-66
2022/12/09 10:43:42;;;;;;;8.43;4.28;;;8.50;99.90;;;;;;4990502;28;20026;-70
2022/12/09 10:46:17;;;;;;;10.80;4.90;;;9.40;99.90;;;;;;4991614;28;20026;-69
2022/12/09 10:48:46;;;;;;;9.40;4.10;;;9.90;99.90;;;;;;5003860;28;20558;-68
2022/12/09 10:51:28;;;;;;;9.60;4.60;;;10.70;99.90;;;;;;5005121;28;20443;-70
2022/12/09 10:53:59;;;;;;;7.40;3.15;;;10.00;99.90;;;;;;5004250;28;20543;-67
2022/12/09 10:56:33;;;;;;;12.20;4.47;;;10.20;99.90;;;;;;5001365;28;20389;-69
2022/12/09 10:59:30;;;;;;;13.27;4.20;;;10.90;99.70;;;;;;4997068;28;20045;-70
2022/12/09 11:02:07;;;;;;;9.63;3.63;;;10.70;99.60;;;;;;4994653;28;20038;-70
2022/12/09 11:04:40;;;;;;;9.85;4.70;;;10.40;99.50;;;;;;5004066;28;20088;-70
2022/12/09 11:07:11;;;;;;;12.18;5.72;;;10.80;98.90;;;;;;5003996;28;20038;-70
2022/12/09 11:09:43;;;;;;;11.70;5.53;;;11.00;98.20;;;;;;5005062;28;20436;-70
2022/12/09 11:12:32;;;;;;;8.90;4.18;;;11.20;99.20;;;;;;4998922;28;20034;-70
2022/12/09 11:15:10;;;;;;;8.68;3.85;;;10.90;97.70;;;;;;4999694;28;20042;-73
2022/12/09 11:17:40;;;;;;;9.68;4.05;;;9.70;97.60;;;;;;4985469;28;20031;-67
2022/12/09 11:20:17;;;;;;;8.75;4.43;;;9.60;99.30;;;;;;5009062;28;20461;-72
2022/12/09 11:22:44;;;;;;;10.52;4.10;;;8.70;99.90;;;;;;5002620;28;20080;-69
2022/12/09 11:25:10;;;;;;;10.25;4.65;;;8.60;99.90;;;;;;4992922;28;20022;-70
2022/12/09 11:27:41;;;;;;;9.23;4.43;;;8.00;99.90;;;;;;4997596;28;20042;-68
2022/12/09 11:30:25;;;;;;;8.55;4.13;;;8.80;99.90;;;;;;4984686;28;20812;-69
2022/12/09 11:33:12;;;;;;;10.43;4.63;;;9.50;99.90;;;;;;4985770;28;20402;-69
2022/12/09 11:35:44;;;;;;;9.80;4.03;;;11.00;97.60;;;;;;4989433;28;20045;-68
2022/12/09 11:38:20;;;;;;;10.68;4.72;;;11.50;95.60;;;;;;4958949;28;20513;-69
2022/12/09 11:41:03;;;;;;;8.52;4.03;;;10.90;95.40;;;;;;4985081;28;20030;-70
2022/12/09 11:43:44;;;;;;;20.85;5.55;;;10.10;97.30;;;;;;4991616;28;20386;-68
2022/12/09 11:46:13;;;;;;;13.43;5.00;;;9.30;98.20;;;;;;4983975;28;20038;-68
2022/12/09 11:48:46;;;;;;;10.95;4.93;;;8.30;99.90;;;;;;4995354;28;20510;-68
2022/12/09 11:51:39;;;;;;;9.70;4.88;;;8.10;99.90;;;;;;4986886;28;20088;-68
2022/12/09 11:54:23;;;;;;;9.43;4.47;;;8.30;99.90;;;;;;5006905;28;20035;-69
2022/12/09 11:56:50;;;;;;;14.05;4.72;;;9.00;99.90;;;;;;4999964;28;20042;-68
2022/12/09 11:59:25;;;;;;;14.10;5.07;;;9.50;99.30;;;;;;4984768;28;20552;-69
2022/12/09 12:02:26;;;;;;;10.93;4.45;;;9.80;99.30;;;;;;4996740;28;20073;-70
2022/12/09 12:05:17;;;;;;;15.93;4.18;;;10.00;97.90;;;;;;4999679;28;20093;-70
2022/12/09 12:08:19;;;;;;;10.38;5.53;;;10.50;96.30;;;;;;4988121;28;20066;-68
2022/12/09 12:11:12;;;;;;;12.27;5.03;;;8.80;97.30;;;;;;4999465;28;20081;-69
2022/12/09 12:13:45;;;;;;;9.18;4.57;;;7.40;99.90;;;;;;4993606;28;20049;-69
2022/12/09 12:16:33;;;;;;;11.80;4.90;;;7.80;99.90;;;;;;4998927;28;20031;-69
2022/12/09 12:19:16;;;;;;;8.70;3.75;;;7.40;99.90;;;;;;4999153;28;20095;-70
2022/12/09 12:22:21;;;;;;;9.95;4.53;;;6.60;99.90;;;;;;5007230;28;20048;-69
2022/12/09 12:25:09;;;;;;;15.00;5.18;;;6.50;99.90;;;;;;5004400;28;20026;-69
2022/12/09 12:28:11;;;;;;;10.85;5.68;;;6.60;99.90;;;;;;4991220;28;20506;-71
2022/12/09 12:30:45;;;;;;;;;;;6.60;99.90;;;;;;4999842;28;20042;-69
2022/12/09 12:33:45;;;;;;;7.22;3.75;;;6.50;99.90;;;;;;4994155;28;19917;-70
2022/12/09 12:36:22;;;;;;;14.10;5.65;;;6.30;99.90;;;;;;4992564;28;20038;-70
2022/12/09 12:39:59;;;;;;;7.45;3.97;;;5.80;99.90;;;;;;4998539;28;20575;-69
2022/12/09 12:42:33;;;;;;;17.10;4.22;;;5.60;99.90;;;;;;4955620;28;20445;-69
2022/12/09 12:48:23;;;;;;;5.53;4.00;;;5.60;99.90;;;;;;4992103;28;20507;-69
2022/12/09 12:51:26;;;;;;;8.48;4.65;;;5.60;99.90;;;;;;5001591;28;20068;-70
2022/12/09 12:54:21;;;;;;;7.90;4.30;;;5.40;99.90;;;;;;4985351;28;20366;-70
2022/12/09 12:57:06;;;;;;;8.95;4.43;;;5.50;99.90;;;;;;4997834;28;20116;-70
2022/12/09 12:59:55;;;;;;;11.15;4.53;;;5.60;99.90;;;;;;4993405;28;20022;-70
2022/12/09 13:02:42;;;;;;;8.35;4.13;;;5.60;99.90;;;;;;4989449;28;20526;-69
2022/12/09 13:05:24;;;;;;;10.32;4.13;;;5.40;99.90;;;;;;5002929;28;20076;-69
2022/12/09 13:08:07;;;;;;;9.00;4.85;;;5.50;99.90;;;;;;5001654;28;20501;-69
2022/12/09 13:11:04;;;;;;;9.98;3.72;;;5.30;99.90;;;;;;5001394;28;20149;-68
2022/12/09 13:13:42;;;;;;;7.30;4.43;;;5.10;99.90;;;;;;5002092;28;20120;-69
2022/12/09 13:16:14;;;;;;;7.28;4.13;;;5.10;99.90;;;;;;4998443;28;20030;-69
2022/12/09 13:18:41;;;;;;;9.23;5.28;;;4.90;99.90;;;;;;4995163;28;20030;-69
2022/12/09 13:21:08;;;;;;;14.75;5.10;;;4.90;99.90;;;;;;5000891;28;20056;-68
2022/12/09 13:24:07;;;;;;;9.65;4.72;;;4.80;99.90;;;;;;4999301;28;20518;-68
2022/12/09 13:26:42;;;;;;;13.15;4.40;;;4.70;99.90;;;;;;4996600;28;20057;-68
2022/12/09 13:29:46;;;;;;;11.50;5.60;;;4.80;99.90;;;;;;4997401;28;20030;-70